createdAt,value
2022-10-03T00:00:08.135Z,99.90
2022-10-03T00:03:08.477Z,99.90
2022-10-03T00:05:59.349Z,99.90
2022-10-03T00:08:40.759Z,99.90
2022-10-03T00:11:16.896Z,99.90
2022-10-03T00:13:55.136Z,99.90
2022-10-03T00:16:34.207Z,99.90
2022-10-03T00:19:09.232Z,99.90
2022-10-03T00:21:46.567Z,99.90
2022-10-03T00:24:26.981Z,99.90
2022-10-03T00:27:01.805Z,99.90
2022-10-03T00:29:42.671Z,99.90
2022-10-03T00:32:26.591Z,99.90
2022-10-03T00:35:08.881Z,99.90
2022-10-03T00:37:39.911Z,99.90
2022-10-03T00:40:37.272Z,99.90
2022-10-03T00:43:46.552Z,99.90
2022-10-03T00:46:42.457Z,99.90
2022-10-03T00:49:41.843Z,99.90
2022-10-03T00:52:29.571Z,99.90
2022-10-03T00:55:11.858Z,99.90
2022-10-03T00:57:54.657Z,99.90
2022-10-03T01:00:25.361Z,99.90
2022-10-03T01:03:14.717Z,99.90
2022-10-03T01:05:58.073Z,99.90
2022-10-03T01:08:51.516Z,99.90
2022-10-03T01:11:33.053Z,99.90
2022-10-03T01:14:17.056Z,99.90
2022-10-03T01:16:55.762Z,99.90
2022-10-03T01:19:38.458Z,99.90
2022-10-03T01:22:29.639Z,99.90
2022-10-03T01:24:59.890Z,99.90
2022-10-03T01:27:57.823Z,99.90
2022-10-03T01:30:34.735Z,99.90
2022-10-03T01:33:10.578Z,99.90
2022-10-03T01:35:48.717Z,99.90
2022-10-03T01:38:21.434Z,99.90
2022-10-03T01:40:55.825Z,99.90
2022-10-03T01:43:34.958Z,99.90
2022-10-03T01:46:13.131Z,99.90
2022-10-03T01:48:47.739Z,99.90
2022-10-03T01:51:21.453Z,99.90
2022-10-03T01:54:07.297Z,99.90
2022-10-03T01:56:39.336Z,99.90
2022-10-03T01:59:12.201Z,99.90
2022-10-03T02:01:50.670Z,99.90
2022-10-03T02:04:28.963Z,99.90
2022-10-03T02:07:04.228Z,99.90
2022-10-03T02:09:39.617Z,99.90
2022-10-03T02:12:16.129Z,99.90
2022-10-03T02:14:53.162Z,99.90
2022-10-03T02:17:30.417Z,99.90
2022-10-03T02:20:09.391Z,99.90
2022-10-03T02:22:42.496Z,99.90
2022-10-03T02:25:21.393Z,99.90
2022-10-03T02:28:10.729Z,99.90
2022-10-03T02:30:51.976Z,99.90
2022-10-03T02:33:44.271Z,99.90
2022-10-03T02:36:48.799Z,99.90
2022-10-03T02:39:53.617Z,99.90
2022-10-03T02:42:39.071Z,99.90
2022-10-03T02:45:46.892Z,99.90
2022-10-03T02:48:49.303Z,99.90
2022-10-03T02:51:37.896Z,99.90
2022-10-03T02:54:50.210Z,99.90
2022-10-03T02:57:57.197Z,99.90
2022-10-03T03:00:36.402Z,99.90
2022-10-03T03:03:26.792Z,99.90
2022-10-03T03:06:46.669Z,99.90
2022-10-03T03:09:36.961Z,99.90
2022-10-03T03:12:27.588Z,99.90
2022-10-03T03:15:31.407Z,99.90
2022-10-03T03:18:06.929Z,99.90
2022-10-03T03:20:52.723Z,99.90
2022-10-03T03:23:43.415Z,99.90
2022-10-03T03:26:30.956Z,99.90
2022-10-03T03:29:08.206Z,99.90
2022-10-03T03:31:45.621Z,99.90
2022-10-03T03:34:20.035Z,99.90
2022-10-03T03:36:54.599Z,99.90
2022-10-03T03:39:38.404Z,99.90
2022-10-03T03:42:41.520Z,99.90
2022-10-03T03:45:29.771Z,99.90
2022-10-03T03:48:14.523Z,99.90
2022-10-03T03:50:59.720Z,99.90
2022-10-03T03:53:49.192Z,99.90
2022-10-03T03:56:43.971Z,99.90
2022-10-03T03:59:23.763Z,99.90
2022-10-03T04:02:12.880Z,99.90
2022-10-03T04:04:54.209Z,99.90
2022-10-03T04:07:31.213Z,99.90
2022-10-03T04:10:18.017Z,99.90
2022-10-03T04:13:03.259Z,99.90
2022-10-03T04:16:05.951Z,99.90
2022-10-03T04:18:58.378Z,99.90
2022-10-03T04:21:57.490Z,99.90
2022-10-03T04:25:06.828Z,99.90
2022-10-03T04:28:00.533Z,99.90
2022-10-03T04:30:38.086Z,99.90
2022-10-03T04:33:32.670Z,99.90
2022-10-03T04:36:40.235Z,99.90
2022-10-03T04:39:18.215Z,99.90
2022-10-03T04:41:51.189Z,99.90
2022-10-03T04:44:32.716Z,99.90
2022-10-03T04:47:05.469Z,99.90
2022-10-03T04:49:39.433Z,99.90
2022-10-03T04:52:18.572Z,99.90
2022-10-03T04:54:52.733Z,99.90
2022-10-03T04:57:29.941Z,99.90
2022-10-03T05:00:08.297Z,99.90
2022-10-03T05:02:46.103Z,99.90
2022-10-03T05:05:28.748Z,99.90
2022-10-03T05:08:05.890Z,99.90
2022-10-03T05:10:56.362Z,99.90
2022-10-03T05:13:34.489Z,99.90
2022-10-03T05:16:11.662Z,99.90
2022-10-03T05:18:46.355Z,99.90
2022-10-03T05:21:16.690Z,99.90
2022-10-03T05:23:55.536Z,99.90
2022-10-03T05:26:45.690Z,99.90
2022-10-03T05:29:21.260Z,99.90
2022-10-03T05:32:01.034Z,99.90
2022-10-03T05:34:38.795Z,99.90
2022-10-03T05:37:28.862Z,99.90
2022-10-03T05:40:00.032Z,99.90
2022-10-03T05:42:44.161Z,99.90
2022-10-03T05:45:29.009Z,99.90
2022-10-03T05:48:12.143Z,99.90
2022-10-03T05:51:09.422Z,99.90
2022-10-03T05:54:24.244Z,99.90
2022-10-03T05:57:10.636Z,99.90
2022-10-03T06:00:07.287Z,99.90
2022-10-03T06:03:23.605Z,99.90
2022-10-03T06:06:14.970Z,99.90
2022-10-03T06:09:12.566Z,99.90
2022-10-03T06:11:59.447Z,99.90
2022-10-03T06:14:41.876Z,99.90
2022-10-03T06:17:43.258Z,99.90
2022-10-03T06:20:54.325Z,99.90
2022-10-03T06:23:47.340Z,99.90
2022-10-03T06:27:05.428Z,99.90
2022-10-03T06:29:52.051Z,99.90
2022-10-03T06:33:11.298Z,99.90
2022-10-03T06:36:08.291Z,99.90
2022-10-03T06:39:08.327Z,99.90
2022-10-03T06:42:15.863Z,99.90
2022-10-03T06:45:11.323Z,99.90
2022-10-03T06:47:52.463Z,99.90
2022-10-03T06:50:35.779Z,99.90
2022-10-03T06:53:32.379Z,99.90
2022-10-03T06:56:49.639Z,99.90
2022-10-03T06:59:39.586Z,99.90
2022-10-03T07:02:34.751Z,99.90
2022-10-03T07:05:47.645Z,99.90
2022-10-03T07:08:48.390Z,99.90
2022-10-03T07:11:40.622Z,99.90
2022-10-03T07:14:38.367Z,99.90
2022-10-03T07:17:23.242Z,99.90
2022-10-03T07:20:06.243Z,99.90
2022-10-03T07:23:06.488Z,99.90
2022-10-03T07:26:21.877Z,99.90
2022-10-03T07:29:10.039Z,99.90
2022-10-03T07:32:04.743Z,99.90
2022-10-03T07:35:18.057Z,99.90
2022-10-03T07:38:30.137Z,99.90
2022-10-03T07:41:32.771Z,99.90
2022-10-03T07:44:35.838Z,99.90
2022-10-03T07:47:58.992Z,99.90
2022-10-03T07:50:52.194Z,99.90
2022-10-03T07:53:55.820Z,99.90
2022-10-03T07:57:05.089Z,99.90
2022-10-03T07:59:59.114Z,99.90
2022-10-03T08:03:02.110Z,99.90
2022-10-03T08:05:43.624Z,99.90
2022-10-03T08:08:50.782Z,99.90
2022-10-03T08:11:40.054Z,99.90
2022-10-03T08:14:20.253Z,99.90
2022-10-03T08:17:13.717Z,99.90
2022-10-03T08:20:01.288Z,99.90
2022-10-03T08:22:42.185Z,99.90
2022-10-03T08:25:27.017Z,99.90
2022-10-03T08:28:17.629Z,99.90
2022-10-03T08:31:09.736Z,99.90
2022-10-03T08:33:54.451Z,99.90
2022-10-03T08:37:07.706Z,99.90
2022-10-03T08:40:11.168Z,99.90
2022-10-03T08:43:11.852Z,99.90
2022-10-03T08:46:02.636Z,99.90
2022-10-03T08:49:00.728Z,99.90
2022-10-03T08:52:02.201Z,99.90
2022-10-03T08:55:07.814Z,99.90
2022-10-03T08:58:04.211Z,99.90
2022-10-03T09:00:52.705Z,99.90
2022-10-03T09:03:53.130Z,99.90
2022-10-03T09:07:15.453Z,99.90
2022-10-03T09:10:25.469Z,99.90
2022-10-03T09:13:22.495Z,99.90
2022-10-03T09:16:36.188Z,99.90
2022-10-03T09:19:22.041Z,99.90
2022-10-03T09:22:20.849Z,99.90
2022-10-03T09:25:21.994Z,80.30
2022-10-03T09:28:25.451Z,99.90
2022-10-03T09:31:04.129Z,81.10
2022-10-03T09:34:07.534Z,64.20
2022-10-03T09:37:13.744Z,46.70
2022-10-03T09:40:25.027Z,43.30
2022-10-03T09:43:04.441Z,33.20
2022-10-03T09:46:04.143Z,27.80
2022-10-03T09:49:13.860Z,21.80
2022-10-03T09:51:52.706Z,11.80
2022-10-03T09:54:44.147Z,12.70
2022-10-03T09:57:40.605Z,1.00
2022-10-03T10:00:24.148Z,1.00
2022-10-03T10:03:22.150Z,1.00
2022-10-03T10:06:34.913Z,1.00
2022-10-03T10:09:37.413Z,1.00
2022-10-03T10:12:37.867Z,1.00
2022-10-03T10:15:36.609Z,1.00
2022-10-03T10:18:33.061Z,1.00
2022-10-03T10:21:36.136Z,1.00
2022-10-03T10:24:33.774Z,1.00
2022-10-03T10:27:25.857Z,1.00
2022-10-03T10:30:28.524Z,1.00
2022-10-03T10:33:24.629Z,1.00
2022-10-03T10:36:30.652Z,1.00
2022-10-03T10:39:39.914Z,1.00
2022-10-03T10:42:35.157Z,1.00
2022-10-03T10:45:36.591Z,1.00
2022-10-03T10:48:39.837Z,1.00
2022-10-03T10:52:01.431Z,10.50
2022-10-03T10:55:18.526Z,30.10
2022-10-03T10:58:30.352Z,32.30
2022-10-03T11:01:30.116Z,30.90
2022-10-03T11:04:29.128Z,8.70
2022-10-03T11:07:23.626Z,1.00
2022-10-03T11:10:23.736Z,1.00
2022-10-03T11:13:35.443Z,1.00
2022-10-03T11:16:45.597Z,1.00
2022-10-03T11:19:55.918Z,1.00
2022-10-03T11:23:11.668Z,1.00
2022-10-03T11:26:22.620Z,1.00
2022-10-03T11:29:40.924Z,1.00
2022-10-03T11:32:49.677Z,1.00
2022-10-03T11:35:46.638Z,1.00
2022-10-03T11:38:20.222Z,1.00
2022-10-03T11:40:58.451Z,1.00
2022-10-03T11:43:59.546Z,1.00
2022-10-03T11:46:46.709Z,1.00
2022-10-03T11:49:32.228Z,1.00
2022-10-03T11:52:09.815Z,1.00
2022-10-03T11:54:41.062Z,1.00
2022-10-03T11:57:16.481Z,1.00
2022-10-03T12:00:03.776Z,1.00
2022-10-03T12:03:01.365Z,1.00
2022-10-03T12:05:48.375Z,1.00
2022-10-03T12:08:49.793Z,1.00
2022-10-03T12:11:36.572Z,1.00
2022-10-03T12:14:31.868Z,1.00
2022-10-03T12:17:10.009Z,1.00
2022-10-03T12:19:50.004Z,1.00
2022-10-03T12:22:34.587Z,1.00
2022-10-03T12:25:19.189Z,1.00
2022-10-03T12:28:14.126Z,1.00
2022-10-03T12:30:56.678Z,1.00
2022-10-03T12:33:50.269Z,1.00
2022-10-03T12:36:24.861Z,1.00
2022-10-03T12:39:07.436Z,1.00
2022-10-03T12:42:02.682Z,1.00
2022-10-03T12:44:49.819Z,1.00
2022-10-03T12:47:54.290Z,1.00
2022-10-03T12:56:29.981Z,1.00
2022-10-03T12:59:22.632Z,1.00
2022-10-03T13:02:20.319Z,1.00
2022-10-03T13:05:10.030Z,1.00
2022-10-03T13:07:57.274Z,1.00
2022-10-03T13:10:38.287Z,1.00
2022-10-03T13:13:27.590Z,1.00
2022-10-03T13:16:22.309Z,1.00
2022-10-03T13:19:06.237Z,1.00
2022-10-03T13:21:55.395Z,1.00
2022-10-03T13:24:32.557Z,1.00
2022-10-03T13:27:15.548Z,1.00
2022-10-03T13:29:55.276Z,1.00
2022-10-03T13:32:33.056Z,1.00
2022-10-03T13:35:40.625Z,1.00
2022-10-03T13:38:39.498Z,1.00
2022-10-03T13:41:18.645Z,1.00
2022-10-03T13:43:52.604Z,1.00
2022-10-03T13:46:39.185Z,1.00
2022-10-03T13:49:19.621Z,1.00
2022-10-03T13:51:58.865Z,1.00
2022-10-03T13:54:49.753Z,1.00
2022-10-03T13:57:24.159Z,1.00
2022-10-03T14:00:10.795Z,1.00
2022-10-03T14:03:06.336Z,1.00
2022-10-03T14:06:08.409Z,1.00
2022-10-03T14:09:11.646Z,1.00
2022-10-03T14:11:51.025Z,1.00
2022-10-03T14:14:50.262Z,1.00
2022-10-03T14:17:26.965Z,1.00
2022-10-03T14:20:17.780Z,1.00
2022-10-03T14:22:58.485Z,1.00
2022-10-03T14:25:33.487Z,1.00
2022-10-03T14:28:07.652Z,1.00
2022-10-03T14:31:05.186Z,1.00
2022-10-03T14:33:40.949Z,1.00
2022-10-03T14:36:31.889Z,1.00
2022-10-03T14:39:17.847Z,1.00
2022-10-03T14:42:06.269Z,1.00
2022-10-03T14:44:41.168Z,1.00
2022-10-03T14:47:11.223Z,1.00
2022-10-03T14:50:05.051Z,1.00
2022-10-03T14:52:43.781Z,1.00
2022-10-03T14:55:20.338Z,1.00
2022-10-03T14:58:09.850Z,1.00
2022-10-03T15:00:44.157Z,1.00
2022-10-03T15:03:34.738Z,1.00
2022-10-03T15:06:20.033Z,1.00
2022-10-03T15:08:54.455Z,1.00
2022-10-03T15:11:32.474Z,1.00
2022-10-03T15:14:09.249Z,1.00
2022-10-03T15:16:51.607Z,1.00
2022-10-03T15:19:26.433Z,1.00
2022-10-03T15:21:57.298Z,1.00
2022-10-03T15:24:30.426Z,1.00
2022-10-03T15:27:04.734Z,1.00
2022-10-03T15:29:35.758Z,1.00
2022-10-03T15:32:10.644Z,1.00
2022-10-03T15:34:41.066Z,1.00
2022-10-03T15:37:17.642Z,1.00
2022-10-03T15:39:53.082Z,1.00
2022-10-03T15:42:30.422Z,1.00
2022-10-03T15:45:05.765Z,1.00
2022-10-03T15:47:40.149Z,1.00
2022-10-03T15:50:14.326Z,1.00
2022-10-03T15:52:53.116Z,1.00
2022-10-03T15:55:27.256Z,1.00
2022-10-03T15:57:59.777Z,1.00
2022-10-03T16:00:31.006Z,1.00
2022-10-03T16:03:13.012Z,1.00
2022-10-03T16:05:49.831Z,1.00
2022-10-03T16:08:22.134Z,1.00
2022-10-03T16:11:02.014Z,1.00
2022-10-03T16:13:36.026Z,1.00
2022-10-03T16:16:11.759Z,1.00
2022-10-03T16:19:05.716Z,1.00
2022-10-03T16:21:43.786Z,1.00
2022-10-03T16:24:22.116Z,1.00
2022-10-03T16:26:54.116Z,1.00
2022-10-03T16:29:24.632Z,1.00
2022-10-03T16:31:58.933Z,1.00
2022-10-03T16:34:30.908Z,1.00
2022-10-03T16:36:59.256Z,1.00
2022-10-03T16:39:30.041Z,1.00
2022-10-03T16:41:58.293Z,1.00
2022-10-03T16:44:32.187Z,1.00
2022-10-03T16:47:03.930Z,1.00
2022-10-03T16:49:57.631Z,1.00
2022-10-03T16:52:31.385Z,1.00
2022-10-03T16:55:03.212Z,1.00
2022-10-03T16:57:40.189Z,1.00
2022-10-03T17:00:16.230Z,1.00
2022-10-03T17:02:46.071Z,1.00
2022-10-03T17:05:15.546Z,1.00
2022-10-03T17:07:45.056Z,1.00
2022-10-03T17:10:28.419Z,1.00
2022-10-03T17:13:03.554Z,1.00
2022-10-03T17:15:34.016Z,1.00
2022-10-03T17:18:14.757Z,1.00
2022-10-03T17:20:48.425Z,1.00
2022-10-03T17:23:26.115Z,1.00
2022-10-03T17:26:03.247Z,1.00
2022-10-03T17:28:38.148Z,1.00
2022-10-03T17:31:14.061Z,1.00
2022-10-03T17:33:48.241Z,1.00
2022-10-03T17:36:38.425Z,1.00
2022-10-03T17:39:09.483Z,1.00
2022-10-03T17:41:43.488Z,1.00
2022-10-03T17:44:21.226Z,1.00
2022-10-03T17:46:58.958Z,1.00
2022-10-03T17:49:42.883Z,1.00
2022-10-03T17:52:16.192Z,1.00
2022-10-03T17:54:46.214Z,1.00
2022-10-03T17:57:21.000Z,1.00
2022-10-03T17:59:55.082Z,1.00
2022-10-03T18:02:31.815Z,1.00
2022-10-03T18:05:09.315Z,1.00
2022-10-03T18:07:37.160Z,1.00
2022-10-03T18:10:07.883Z,1.00
2022-10-03T18:12:40.843Z,1.00
2022-10-03T18:15:41.505Z,1.00
2022-10-03T18:18:51.303Z,1.00
2022-10-03T18:21:33.513Z,1.00
2022-10-03T18:24:43.555Z,1.00
2022-10-03T18:27:40.790Z,1.00
2022-10-03T18:30:17.024Z,1.00
2022-10-03T18:32:45.778Z,1.00
2022-10-03T18:35:16.183Z,1.00
2022-10-03T18:37:55.598Z,1.00
2022-10-03T18:40:28.301Z,1.00
2022-10-03T18:42:55.782Z,1.00
2022-10-03T18:45:29.248Z,1.00
2022-10-03T18:48:04.622Z,1.00
2022-10-03T18:50:43.105Z,1.00
2022-10-03T18:53:19.912Z,1.00
2022-10-03T18:55:49.247Z,1.00
2022-10-03T18:58:20.700Z,1.00
2022-10-03T19:00:54.397Z,1.00
2022-10-03T19:03:28.412Z,1.00
2022-10-03T19:06:02.669Z,1.00
2022-10-03T19:08:38.345Z,1.00
2022-10-03T19:11:14.992Z,1.00
2022-10-03T19:13:46.947Z,1.00
2022-10-03T19:16:30.257Z,1.00
2022-10-03T19:19:05.840Z,1.00
2022-10-03T19:21:37.637Z,1.00
2022-10-03T19:24:12.324Z,1.00
2022-10-03T19:26:45.404Z,1.00
2022-10-03T19:29:15.851Z,1.00
2022-10-03T19:31:52.493Z,1.00
2022-10-03T19:34:22.627Z,1.00
2022-10-03T19:36:51.640Z,1.00
2022-10-03T19:39:22.105Z,1.00
2022-10-03T19:41:53.273Z,1.00
2022-10-03T19:44:24.466Z,1.00
2022-10-03T19:47:03.018Z,7.80
2022-10-03T19:49:46.815Z,17.00
2022-10-03T19:52:22.159Z,3.70
2022-10-03T19:54:54.159Z,1.00
2022-10-03T19:57:26.997Z,1.00
2022-10-03T19:59:57.947Z,1.00
2022-10-03T20:02:27.433Z,1.00
2022-10-03T20:04:57.192Z,1.00
2022-10-03T20:07:39.228Z,1.00
2022-10-03T20:10:26.477Z,1.00
2022-10-03T20:12:53.649Z,1.00
2022-10-03T20:15:23.885Z,1.00
2022-10-03T20:17:52.640Z,1.00
2022-10-03T20:20:23.167Z,1.00
2022-10-03T20:22:54.570Z,1.00
2022-10-03T20:25:30.678Z,1.00
2022-10-03T20:28:01.275Z,1.00
2022-10-03T20:30:36.299Z,1.00
2022-10-03T20:33:04.605Z,1.00
2022-10-03T20:35:40.511Z,1.00
2022-10-03T20:38:15.414Z,1.00
2022-10-03T20:40:46.018Z,1.00
2022-10-03T20:43:37.823Z,1.00
2022-10-03T20:46:22.080Z,1.00
2022-10-03T20:49:22.589Z,1.00
2022-10-03T20:52:01.427Z,1.00
2022-10-03T20:54:35.414Z,1.00
2022-10-03T20:57:12.833Z,1.00
2022-10-03T20:59:45.508Z,1.00
2022-10-03T21:02:24.838Z,1.00
2022-10-03T21:04:56.601Z,1.00
2022-10-03T21:07:37.893Z,1.00
2022-10-03T21:10:17.372Z,1.00
2022-10-03T21:12:48.810Z,1.00
2022-10-03T21:15:29.832Z,1.00
2022-10-03T21:17:57.945Z,1.00
2022-10-03T21:20:35.143Z,1.00
2022-10-03T21:23:06.723Z,1.00
2022-10-03T21:25:36.519Z,1.00
2022-10-03T21:28:05.334Z,4.60
2022-10-03T21:30:52.646Z,3.80
2022-10-03T21:33:22.943Z,7.40
2022-10-03T21:35:51.797Z,9.80
2022-10-03T21:38:24.330Z,10.40
2022-10-03T21:41:19.145Z,6.60
2022-10-03T21:43:54.056Z,14.50
2022-10-03T21:46:29.254Z,20.20
2022-10-03T21:49:34.792Z,24.90
2022-10-03T21:52:16.322Z,30.30
2022-10-03T21:54:53.697Z,37.50
2022-10-03T21:57:30.449Z,38.40
2022-10-03T22:00:13.189Z,32.80
2022-10-03T22:02:53.074Z,43.70
2022-10-03T22:05:28.548Z,44.80
2022-10-03T22:07:56.567Z,48.20
2022-10-03T22:10:26.754Z,48.00
2022-10-03T22:12:58.752Z,39.80
2022-10-03T22:15:36.772Z,43.90
2022-10-03T22:18:08.722Z,42.90
2022-10-03T22:20:36.196Z,48.10
2022-10-03T22:23:20.958Z,39.90
2022-10-03T22:26:03.140Z,51.20
2022-10-03T22:28:41.897Z,53.60
2022-10-03T22:31:19.681Z,53.90
2022-10-03T22:33:59.195Z,54.00
2022-10-03T22:36:27.409Z,58.10
2022-10-03T22:38:54.340Z,64.10
2022-10-03T22:41:27.210Z,68.10
2022-10-03T22:43:55.982Z,70.00
2022-10-03T22:46:28.689Z,56.10
2022-10-03T22:49:00.369Z,63.50
2022-10-03T22:51:27.848Z,65.50
2022-10-03T22:54:01.648Z,72.90
2022-10-03T22:56:38.064Z,76.50
2022-10-03T22:59:09.369Z,79.10
2022-10-03T23:01:42.873Z,80.50
2022-10-03T23:04:17.492Z,83.70
2022-10-03T23:07:07.638Z,85.20
2022-10-03T23:09:39.680Z,84.80
2022-10-03T23:12:08.997Z,86.00
2022-10-03T23:14:39.497Z,88.10
2022-10-03T23:17:22.247Z,97.80
2022-10-03T23:19:57.080Z,99.90
2022-10-03T23:22:28.347Z,99.90
2022-10-03T23:24:59.957Z,99.90
2022-10-03T23:27:57.923Z,99.90
2022-10-03T23:30:47.260Z,99.90
2022-10-03T23:33:57.244Z,99.90
2022-10-03T23:36:25.028Z,99.90
2022-10-03T23:38:59.566Z,99.90
2022-10-03T23:41:42.605Z,99.90
2022-10-03T23:44:35.415Z,99.90
2022-10-03T23:47:06.455Z,99.90
2022-10-03T23:49:37.431Z,99.90
2022-10-03T23:52:06.564Z,99.90
2022-10-03T23:54:33.745Z,99.90
2022-10-03T23:57:07.244Z,99.90
2022-10-03T23:59:36.646Z,99.90
